sensor_id;sensor_type;location;lat;lon;timestamp;temperature;humidity
36652;DHT22;53334;51.976;20.144;2024-01-11T00:02:12;25.00;34.50
36652;DHT22;53334;51.976;20.144;2024-01-11T00:04:46;24.90;34.20
36652;DHT22;53334;51.976;20.144;2024-01-11T00:07:19;24.90;34.30
36652;DHT22;53334;51.976;20.144;2024-01-11T00:09:53;24.90;34.20
36652;DHT22;53334;51.976;20.144;2024-01-11T00:12:27;24.90;34.00
36652;DHT22;53334;51.976;20.144;2024-01-11T00:15:00;24.90;34.10
36652;DHT22;53334;51.976;20.144;2024-01-11T00:17:33;24.90;33.90
36652;DHT22;53334;51.976;20.144;2024-01-11T00:20:09;24.90;33.90
36652;DHT22;53334;51.976;20.144;2024-01-11T00:22:43;24.90;34.00
36652;DHT22;53334;51.976;20.144;2024-01-11T00:25:16;24.90;33.90
36652;DHT22;53334;51.976;20.144;2024-01-11T00:27:49;24.90;33.90
36652;DHT22;53334;51.976;20.144;2024-01-11T00:30:22;24.90;34.00
36652;DHT22;53334;51.976;20.144;2024-01-11T00:32:56;24.90;34.00
36652;DHT22;53334;51.976;20.144;2024-01-11T00:35:31;24.90;33.90
36652;DHT22;53334;51.976;20.144;2024-01-11T00:38:04;24.90;34.00
36652;DHT22;53334;51.976;20.144;2024-01-11T00:40:37;24.90;33.90
36652;DHT22;53334;51.976;20.144;2024-01-11T00:43:10;24.90;33.60
36652;DHT22;53334;51.976;20.144;2024-01-11T00:45:44;24.90;33.30
36652;DHT22;53334;51.976;20.144;2024-01-11T00:48:18;24.90;33.70
36652;DHT22;53334;51.976;20.144;2024-01-11T00:50:52;24.90;33.90
36652;DHT22;53334;51.976;20.144;2024-01-11T00:53:26;24.90;34.10
36652;DHT22;53334;51.976;20.144;2024-01-11T00:56:03;24.90;34.00
36652;DHT22;53334;51.976;20.144;2024-01-11T00:58:36;24.90;34.10
36652;DHT22;53334;51.976;20.144;2024-01-11T01:01:09;24.90;34.10
36652;DHT22;53334;51.976;20.144;2024-01-11T01:03:42;24.90;34.30
36652;DHT22;53334;51.976;20.144;2024-01-11T01:06:17;24.90;34.30
36652;DHT22;53334;51.976;20.144;2024-01-11T01:08:50;24.90;34.90
36652;DHT22;53334;51.976;20.144;2024-01-11T01:11:23;24.90;34.40
36652;DHT22;53334;51.976;20.144;2024-01-11T01:13:57;24.90;34.40
36652;DHT22;53334;51.976;20.144;2024-01-11T01:16:30;24.90;34.50
36652;DHT22;53334;51.976;20.144;2024-01-11T01:19:03;24.90;34.50
36652;DHT22;53334;51.976;20.144;2024-01-11T01:21:38;25.00;34.60
36652;DHT22;53334;51.976;20.144;2024-01-11T01:24:11;24.90;34.60
36652;DHT22;53334;51.976;20.144;2024-01-11T01:26:44;24.90;34.60
36652;DHT22;53334;51.976;20.144;2024-01-11T01:29:17;24.90;34.60
36652;DHT22;53334;51.976;20.144;2024-01-11T01:31:51;25.00;34.70
36652;DHT22;53334;51.976;20.144;2024-01-11T01:34:24;24.90;34.60
36652;DHT22;53334;51.976;20.144;2024-01-11T01:36:59;25.00;34.70
36652;DHT22;53334;51.976;20.144;2024-01-11T01:39:32;24.90;34.60
36652;DHT22;53334;51.976;20.144;2024-01-11T01:42:05;24.90;34.60
36652;DHT22;53334;51.976;20.144;2024-01-11T01:44:38;24.90;34.60
36652;DHT22;53334;51.976;20.144;2024-01-11T01:47:13;24.90;34.60
36652;DHT22;53334;51.976;20.144;2024-01-11T01:49:48;24.90;34.50
36652;DHT22;53334;51.976;20.144;2024-01-11T01:52:23;24.90;34.50
36652;DHT22;53334;51.976;20.144;2024-01-11T01:54:58;24.90;34.50
36652;DHT22;53334;51.976;20.144;2024-01-11T01:57:33;24.90;34.50
36652;DHT22;53334;51.976;20.144;2024-01-11T02:00:09;24.90;35.10
36652;DHT22;53334;51.976;20.144;2024-01-11T02:02:44;25.00;34.50
36652;DHT22;53334;51.976;20.144;2024-01-11T02:05:18;24.90;34.50
36652;DHT22;53334;51.976;20.144;2024-01-11T02:07:53;24.90;34.50
36652;DHT22;53334;51.976;20.144;2024-01-11T02:10:26;24.90;34.90
36652;DHT22;53334;51.976;20.144;2024-01-11T02:13:00;24.90;34.50
36652;DHT22;53334;51.976;20.144;2024-01-11T02:15:33;24.90;34.50
36652;DHT22;53334;51.976;20.144;2024-01-11T02:18:07;24.90;34.50
36652;DHT22;53334;51.976;20.144;2024-01-11T02:20:40;24.90;34.40
36652;DHT22;53334;51.976;20.144;2024-01-11T02:23:19;24.90;34.50
36652;DHT22;53334;51.976;20.144;2024-01-11T02:25:55;24.90;34.50
36652;DHT22;53334;51.976;20.144;2024-01-11T02:28:29;24.90;34.40
36652;DHT22;53334;51.976;20.144;2024-01-11T02:31:02;24.90;34.40
36652;DHT22;53334;51.976;20.144;2024-01-11T02:33:36;24.90;34.40
36652;DHT22;53334;51.976;20.144;2024-01-11T02:36:09;24.90;34.30
36652;DHT22;53334;51.976;20.144;2024-01-11T02:38:43;24.90;34.90
36652;DHT22;53334;51.976;20.144;2024-01-11T02:41:18;24.90;34.40
36652;DHT22;53334;51.976;20.144;2024-01-11T02:43:52;24.90;34.30
36652;DHT22;53334;51.976;20.144;2024-01-11T02:46:26;24.90;34.30
36652;DHT22;53334;51.976;20.144;2024-01-11T02:48:59;24.90;34.30
36652;DHT22;53334;51.976;20.144;2024-01-11T02:51:33;24.90;34.30
36652;DHT22;53334;51.976;20.144;2024-01-11T02:54:06;24.90;34.30
36652;DHT22;53334;51.976;20.144;2024-01-11T02:56:40;24.90;34.30
36652;DHT22;53334;51.976;20.144;2024-01-11T02:59:14;24.90;34.30
36652;DHT22;53334;51.976;20.144;2024-01-11T03:01:47;24.90;34.30
36652;DHT22;53334;51.976;20.144;2024-01-11T03:04:21;24.90;34.30
36652;DHT22;53334;51.976;20.144;2024-01-11T03:06:54;24.90;34.30
36652;DHT22;53334;51.976;20.144;2024-01-11T03:09:27;24.90;34.30
36652;DHT22;53334;51.976;20.144;2024-01-11T03:12:02;24.90;34.30
36652;DHT22;53334;51.976;20.144;2024-01-11T03:14:35;24.90;34.30
36652;DHT22;53334;51.976;20.144;2024-01-11T03:17:09;24.90;34.30
36652;DHT22;53334;51.976;20.144;2024-01-11T03:19:42;24.90;34.30
36652;DHT22;53334;51.976;20.144;2024-01-11T03:22:15;24.90;34.20
36652;DHT22;53334;51.976;20.144;2024-01-11T03:24:48;24.90;34.20
36652;DHT22;53334;51.976;20.144;2024-01-11T03:27:23;24.90;34.20
36652;DHT22;53334;51.976;20.144;2024-01-11T03:29:56;24.90;34.20
36652;DHT22;53334;51.976;20.144;2024-01-11T03:32:30;24.90;34.20
36652;DHT22;53334;51.976;20.144;2024-01-11T03:35:03;24.90;34.20
36652;DHT22;53334;51.976;20.144;2024-01-11T03:37:37;24.90;34.10
36652;DHT22;53334;51.976;20.144;2024-01-11T03:40:10;24.90;34.10
36652;DHT22;53334;51.976;20.144;2024-01-11T03:42:45;24.90;34.10
36652;DHT22;53334;51.976;20.144;2024-01-11T03:45:18;24.90;34.10
36652;DHT22;53334;51.976;20.144;2024-01-11T03:47:52;24.90;34.10
36652;DHT22;53334;51.976;20.144;2024-01-11T03:50:25;24.90;34.00
36652;DHT22;53334;51.976;20.144;2024-01-11T03:52:59;24.90;34.10
36652;DHT22;53334;51.976;20.144;2024-01-11T03:55:32;24.80;33.90
36652;DHT22;53334;51.976;20.144;2024-01-11T03:58:06;24.90;34.10
36652;DHT22;53334;51.976;20.144;2024-01-11T04:00:39;24.90;33.90
36652;DHT22;53334;51.976;20.144;2024-01-11T04:03:13;24.80;33.90
36652;DHT22;53334;51.976;20.144;2024-01-11T04:05:46;24.90;34.00
36652;DHT22;53334;51.976;20.144;2024-01-11T04:08:20;24.80;33.90
36652;DHT22;53334;51.976;20.144;2024-01-11T04:10:53;24.80;33.90
36652;DHT22;53334;51.976;20.144;2024-01-11T04:13:28;24.80;33.80
36652;DHT22;53334;51.976;20.144;2024-01-11T04:16:04;24.80;33.90
36652;DHT22;53334;51.976;20.144;2024-01-11T04:18:38;24.80;33.90
36652;DHT22;53334;51.976;20.144;2024-01-11T04:21:19;24.80;33.80
36652;DHT22;53334;51.976;20.144;2024-01-11T04:23:53;24.80;34.50
36652;DHT22;53334;51.976;20.144;2024-01-11T04:26:26;24.80;33.90
36652;DHT22;53334;51.976;20.144;2024-01-11T04:29:01;24.80;33.90
36652;DHT22;53334;51.976;20.144;2024-01-11T04:31:35;24.80;33.80
36652;DHT22;53334;51.976;20.144;2024-01-11T04:34:08;24.80;33.80
36652;DHT22;53334;51.976;20.144;2024-01-11T04:36:42;24.80;33.90
36652;DHT22;53334;51.976;20.144;2024-01-11T04:39:15;24.80;33.90
36652;DHT22;53334;51.976;20.144;2024-01-11T04:41:48;24.80;33.90
36652;DHT22;53334;51.976;20.144;2024-01-11T04:44:23;24.80;33.80
36652;DHT22;53334;51.976;20.144;2024-01-11T04:46:58;24.80;33.70
36652;DHT22;53334;51.976;20.144;2024-01-11T04:49:32;24.80;33.70
36652;DHT22;53334;51.976;20.144;2024-01-11T04:52:05;24.80;33.80
36652;DHT22;53334;51.976;20.144;2024-01-11T04:54:38;24.80;33.80
36652;DHT22;53334;51.976;20.144;2024-01-11T04:57:11;24.80;33.80
36652;DHT22;53334;51.976;20.144;2024-01-11T05:02:44;24.80;34.20
36652;DHT22;53334;51.976;20.144;2024-01-11T05:05:17;24.80;33.60
36652;DHT22;53334;51.976;20.144;2024-01-11T05:07:50;24.80;33.60
36652;DHT22;53334;51.976;20.144;2024-01-11T05:10:24;24.80;33.70
36652;DHT22;53334;51.976;20.144;2024-01-11T05:12:57;24.80;33.70
36652;DHT22;53334;51.976;20.144;2024-01-11T05:15:30;24.80;33.70
36652;DHT22;53334;51.976;20.144;2024-01-11T05:18:05;24.80;33.70
36652;DHT22;53334;51.976;20.144;2024-01-11T05:20:38;24.80;33.60
36652;DHT22;53334;51.976;20.144;2024-01-11T05:23:11;24.80;33.70
36652;DHT22;53334;51.976;20.144;2024-01-11T05:25:44;24.80;33.70
36652;DHT22;53334;51.976;20.144;2024-01-11T05:28:18;24.80;33.60
36652;DHT22;53334;51.976;20.144;2024-01-11T05:30:51;24.80;33.60
36652;DHT22;53334;51.976;20.144;2024-01-11T05:33:26;24.80;33.60
36652;DHT22;53334;51.976;20.144;2024-01-11T05:35:59;24.80;33.60
36652;DHT22;53334;51.976;20.144;2024-01-11T05:38:32;24.80;33.50
36652;DHT22;53334;51.976;20.144;2024-01-11T05:41:06;24.80;33.60
36652;DHT22;53334;51.976;20.144;2024-01-11T05:43:40;24.80;33.60
36652;DHT22;53334;51.976;20.144;2024-01-11T05:46:14;24.80;33.60
36652;DHT22;53334;51.976;20.144;2024-01-11T05:48:49;24.80;33.50
36652;DHT22;53334;51.976;20.144;2024-01-11T05:51:22;24.80;33.60
36652;DHT22;53334;51.976;20.144;2024-01-11T05:53:55;24.80;33.50
36652;DHT22;53334;51.976;20.144;2024-01-11T05:56:28;24.80;33.60
36652;DHT22;53334;51.976;20.144;2024-01-11T05:59:01;24.80;33.50
36652;DHT22;53334;51.976;20.144;2024-01-11T06:01:40;24.80;33.60
36652;DHT22;53334;51.976;20.144;2024-01-11T06:04:15;24.80;33.70
36652;DHT22;53334;51.976;20.144;2024-01-11T06:06:49;24.80;33.50
36652;DHT22;53334;51.976;20.144;2024-01-11T06:09:22;24.80;33.50
36652;DHT22;53334;51.976;20.144;2024-01-11T06:11:56;24.80;33.60
36652;DHT22;53334;51.976;20.144;2024-01-11T06:14:29;24.80;34.40
36652;DHT22;53334;51.976;20.144;2024-01-11T06:17:02;24.80;33.70
36652;DHT22;53334;51.976;20.144;2024-01-11T06:19:37;24.80;33.70
36652;DHT22;53334;51.976;20.144;2024-01-11T06:22:10;24.80;33.70
36652;DHT22;53334;51.976;20.144;2024-01-11T06:24:44;24.80;33.60
36652;DHT22;53334;51.976;20.144;2024-01-11T06:27:17;24.80;33.50
36652;DHT22;53334;51.976;20.144;2024-01-11T06:29:50;24.80;33.40
36652;DHT22;53334;51.976;20.144;2024-01-11T06:32:23;24.80;33.40
36652;DHT22;53334;51.976;20.144;2024-01-11T06:34:58;24.80;33.50
36652;DHT22;53334;51.976;20.144;2024-01-11T06:37:31;24.80;34.00
36652;DHT22;53334;51.976;20.144;2024-01-11T06:40:06;24.80;34.00
36652;DHT22;53334;51.976;20.144;2024-01-11T06:42:40;24.80;33.50
36652;DHT22;53334;51.976;20.144;2024-01-11T06:45:13;24.80;33.50
36652;DHT22;53334;51.976;20.144;2024-01-11T06:47:47;24.80;33.50
36652;DHT22;53334;51.976;20.144;2024-01-11T06:50:22;24.80;33.40
36652;DHT22;53334;51.976;20.144;2024-01-11T06:52:56;24.80;33.40
36652;DHT22;53334;51.976;20.144;2024-01-11T06:55:29;24.80;33.30
36652;DHT22;53334;51.976;20.144;2024-01-11T06:58:03;24.80;33.40
36652;DHT22;53334;51.976;20.144;2024-01-11T07:00:36;24.80;33.40
36652;DHT22;53334;51.976;20.144;2024-01-11T07:03:15;24.80;33.70
36652;DHT22;53334;51.976;20.144;2024-01-11T07:05:49;24.80;34.10
36652;DHT22;53334;51.976;20.144;2024-01-11T07:08:23;24.80;34.20
36652;DHT22;53334;51.976;20.144;2024-01-11T07:10:56;24.80;34.20
36652;DHT22;53334;51.976;20.144;2024-01-11T07:13:30;24.80;34.80
36652;DHT22;53334;51.976;20.144;2024-01-11T07:16:05;24.80;34.20
36652;DHT22;53334;51.976;20.144;2024-01-11T07:18:38;24.80;34.30
36652;DHT22;53334;51.976;20.144;2024-01-11T07:21:21;24.80;34.50
36652;DHT22;53334;51.976;20.144;2024-01-11T07:24:01;24.90;34.70
36652;DHT22;53334;51.976;20.144;2024-01-11T07:26:35;24.80;34.60
36652;DHT22;53334;51.976;20.144;2024-01-11T07:29:08;24.80;34.80
36652;DHT22;53334;51.976;20.144;2024-01-11T07:31:41;24.80;34.80
36652;DHT22;53334;51.976;20.144;2024-01-11T07:34:14;24.80;34.90
36652;DHT22;53334;51.976;20.144;2024-01-11T07:36:49;24.80;35.00
36652;DHT22;53334;51.976;20.144;2024-01-11T07:39:22;24.80;35.00
36652;DHT22;53334;51.976;20.144;2024-01-11T07:41:56;24.80;35.00
36652;DHT22;53334;51.976;20.144;2024-01-11T07:44:29;24.80;35.10
36652;DHT22;53334;51.976;20.144;2024-01-11T07:47:03;24.80;35.20
36652;DHT22;53334;51.976;20.144;2024-01-11T07:49:36;24.80;35.20
36652;DHT22;53334;51.976;20.144;2024-01-11T07:52:11;24.80;35.20
36652;DHT22;53334;51.976;20.144;2024-01-11T07:54:44;24.80;35.10
36652;DHT22;53334;51.976;20.144;2024-01-11T07:57:17;24.80;35.20
36652;DHT22;53334;51.976;20.144;2024-01-11T07:59:50;24.80;35.30
36652;DHT22;53334;51.976;20.144;2024-01-11T08:02:24;24.80;35.20
36652;DHT22;53334;51.976;20.144;2024-01-11T08:04:57;24.80;35.30
36652;DHT22;53334;51.976;20.144;2024-01-11T08:07:33;24.80;35.40
36652;DHT22;53334;51.976;20.144;2024-01-11T08:10:07;24.80;35.40
36652;DHT22;53334;51.976;20.144;2024-01-11T08:12:41;24.80;35.30
36652;DHT22;53334;51.976;20.144;2024-01-11T08:15:14;24.80;35.20
36652;DHT22;53334;51.976;20.144;2024-01-11T08:17:48;24.80;35.10
36652;DHT22;53334;51.976;20.144;2024-01-11T08:20:22;24.80;35.20
36652;DHT22;53334;51.976;20.144;2024-01-11T08:22:56;24.80;35.00
36652;DHT22;53334;51.976;20.144;2024-01-11T08:25:30;24.80;35.00
36652;DHT22;53334;51.976;20.144;2024-01-11T08:28:04;24.80;35.00
36652;DHT22;53334;51.976;20.144;2024-01-11T08:30:37;24.80;35.00
36652;DHT22;53334;51.976;20.144;2024-01-11T08:33:10;24.80;35.00
36652;DHT22;53334;51.976;20.144;2024-01-11T08:35:44;24.80;34.80
36652;DHT22;53334;51.976;20.144;2024-01-11T08:38:19;24.80;35.10
36652;DHT22;53334;51.976;20.144;2024-01-11T08:40:52;24.80;35.00
36652;DHT22;53334;51.976;20.144;2024-01-11T08:43:25;24.80;35.00
36652;DHT22;53334;51.976;20.144;2024-01-11T08:45:59;24.80;35.20
36652;DHT22;53334;51.976;20.144;2024-01-11T08:48:33;24.80;35.40
36652;DHT22;53334;51.976;20.144;2024-01-11T08:51:07;24.80;35.60
36652;DHT22;53334;51.976;20.144;2024-01-11T08:53:42;24.80;35.60
36652;DHT22;53334;51.976;20.144;2024-01-11T08:56:15;24.80;35.90
36652;DHT22;53334;51.976;20.144;2024-01-11T08:58:49;24.80;36.10
36652;DHT22;53334;51.976;20.144;2024-01-11T09:01:22;24.80;36.30
36652;DHT22;53334;51.976;20.144;2024-01-11T09:03:57;24.80;36.60
36652;DHT22;53334;51.976;20.144;2024-01-11T09:06:31;24.80;36.70
36652;DHT22;53334;51.976;20.144;2024-01-11T09:09:07;24.80;36.80
36652;DHT22;53334;51.976;20.144;2024-01-11T09:11:42;24.80;36.90
36652;DHT22;53334;51.976;20.144;2024-01-11T09:14:15;24.80;37.10
36652;DHT22;53334;51.976;20.144;2024-01-11T09:16:48;24.90;37.00
36652;DHT22;53334;51.976;20.144;2024-01-11T09:19:22;24.90;37.20
36652;DHT22;53334;51.976;20.144;2024-01-11T09:21:55;24.90;37.30
36652;DHT22;53334;51.976;20.144;2024-01-11T09:24:30;24.90;37.10
36652;DHT22;53334;51.976;20.144;2024-01-11T09:27:09;24.90;37.10
36652;DHT22;53334;51.976;20.144;2024-01-11T09:29:43;24.90;37.10
36652;DHT22;53334;51.976;20.144;2024-01-11T09:32:17;24.90;37.30
36652;DHT22;53334;51.976;20.144;2024-01-11T09:34:50;24.90;37.30
36652;DHT22;53334;51.976;20.144;2024-01-11T09:37:23;24.90;37.50
36652;DHT22;53334;51.976;20.144;2024-01-11T09:39:59;24.90;37.70
36652;DHT22;53334;51.976;20.144;2024-01-11T09:42:33;24.90;38.80
36652;DHT22;53334;51.976;20.144;2024-01-11T09:45:08;24.90;38.50
36652;DHT22;53334;51.976;20.144;2024-01-11T09:47:42;25.00;39.00
36652;DHT22;53334;51.976;20.144;2024-01-11T09:50:17;24.90;39.20
36652;DHT22;53334;51.976;20.144;2024-01-11T09:52:51;25.00;39.70
36652;DHT22;53334;51.976;20.144;2024-01-11T09:55:26;25.00;39.50
36652;DHT22;53334;51.976;20.144;2024-01-11T09:58:00;25.00;40.10
36652;DHT22;53334;51.976;20.144;2024-01-11T10:00:33;25.00;39.00
36652;DHT22;53334;51.976;20.144;2024-01-11T10:03:07;25.00;39.10
36652;DHT22;53334;51.976;20.144;2024-01-11T10:05:40;25.00;38.80
36652;DHT22;53334;51.976;20.144;2024-01-11T10:08:14;25.00;38.80
36652;DHT22;53334;51.976;20.144;2024-01-11T10:10:51;25.00;38.60
36652;DHT22;53334;51.976;20.144;2024-01-11T10:13:27;25.00;38.60
36652;DHT22;53334;51.976;20.144;2024-01-11T10:16:11;25.00;38.50
36652;DHT22;53334;51.976;20.144;2024-01-11T10:18:45;24.90;38.20
36652;DHT22;53334;51.976;20.144;2024-01-11T10:21:19;24.90;38.00
36652;DHT22;53334;51.976;20.144;2024-01-11T10:23:52;24.90;37.90
36652;DHT22;53334;51.976;20.144;2024-01-11T10:26:28;24.90;37.90
36652;DHT22;53334;51.976;20.144;2024-01-11T10:29:06;24.90;37.80
36652;DHT22;53334;51.976;20.144;2024-01-11T10:31:44;24.90;37.70
36652;DHT22;53334;51.976;20.144;2024-01-11T10:34:17;24.90;37.60
36652;DHT22;53334;51.976;20.144;2024-01-11T10:36:52;24.90;37.40
36652;DHT22;53334;51.976;20.144;2024-01-11T10:39:26;24.90;37.30
36652;DHT22;53334;51.976;20.144;2024-01-11T10:42:02;24.90;37.30
36652;DHT22;53334;51.976;20.144;2024-01-11T10:44:40;24.90;37.30
36652;DHT22;53334;51.976;20.144;2024-01-11T10:47:16;24.80;37.20
36652;DHT22;53334;51.976;20.144;2024-01-11T10:49:52;24.90;37.10
36652;DHT22;53334;51.976;20.144;2024-01-11T10:52:28;24.90;37.00
36652;DHT22;53334;51.976;20.144;2024-01-11T10:55:06;24.90;36.90
36652;DHT22;53334;51.976;20.144;2024-01-11T10:57:41;24.90;36.80
36652;DHT22;53334;51.976;20.144;2024-01-11T11:00:15;24.90;36.80
36652;DHT22;53334;51.976;20.144;2024-01-11T11:02:49;24.90;36.70
36652;DHT22;53334;51.976;20.144;2024-01-11T11:05:24;24.90;36.70
36652;DHT22;53334;51.976;20.144;2024-01-11T11:08:01;24.90;36.70
36652;DHT22;53334;51.976;20.144;2024-01-11T11:10:35;24.90;36.60
36652;DHT22;53334;51.976;20.144;2024-01-11T11:13:13;24.90;35.30
36652;DHT22;53334;51.976;20.144;2024-01-11T11:15:47;24.80;35.00
36652;DHT22;53334;51.976;20.144;2024-01-11T11:18:22;24.90;35.10
36652;DHT22;53334;51.976;20.144;2024-01-11T11:20:56;24.80;33.30
36652;DHT22;53334;51.976;20.144;2024-01-11T11:23:29;24.70;30.10
36652;DHT22;53334;51.976;20.144;2024-01-11T11:26:05;24.70;29.80
36652;DHT22;53334;51.976;20.144;2024-01-11T11:28:41;24.60;29.50
36652;DHT22;53334;51.976;20.144;2024-01-11T11:31:34;24.50;29.40
36652;DHT22;53334;51.976;20.144;2024-01-11T11:34:11;24.50;29.90
36652;DHT22;53334;51.976;20.144;2024-01-11T11:36:46;24.50;30.00
36652;DHT22;53334;51.976;20.144;2024-01-11T11:39:21;24.50;30.30
36652;DHT22;53334;51.976;20.144;2024-01-11T11:41:56;24.50;30.80
36652;DHT22;53334;51.976;20.144;2024-01-11T11:44:32;24.50;30.90
36652;DHT22;53334;51.976;20.144;2024-01-11T11:47:20;24.50;31.00
36652;DHT22;53334;51.976;20.144;2024-01-11T11:49:58;24.50;31.80
36652;DHT22;53334;51.976;20.144;2024-01-11T11:52:33;24.50;31.30
36652;DHT22;53334;51.976;20.144;2024-01-11T11:55:07;24.50;31.50
36652;DHT22;53334;51.976;20.144;2024-01-11T11:57:43;24.50;31.70
36652;DHT22;53334;51.976;20.144;2024-01-11T12:00:19;24.50;31.80
36652;DHT22;53334;51.976;20.144;2024-01-11T12:02:52;24.50;31.80
36652;DHT22;53334;51.976;20.144;2024-01-11T12:05:28;24.50;32.00
36652;DHT22;53334;51.976;20.144;2024-01-11T12:08:02;24.50;32.00
36652;DHT22;53334;51.976;20.144;2024-01-11T12:10:35;24.50;32.40
36652;DHT22;53334;51.976;20.144;2024-01-11T12:13:08;24.50;32.60
36652;DHT22;53334;51.976;20.144;2024-01-11T12:15:43;24.50;32.70
36652;DHT22;53334;51.976;20.144;2024-01-11T12:18:16;24.50;32.80
36652;DHT22;53334;51.976;20.144;2024-01-11T12:20:51;24.50;33.40
36652;DHT22;53334;51.976;20.144;2024-01-11T12:23:25;24.60;32.90
36652;DHT22;53334;51.976;20.144;2024-01-11T12:26:02;24.50;32.80
36652;DHT22;53334;51.976;20.144;2024-01-11T12:28:37;24.60;32.90
36652;DHT22;53334;51.976;20.144;2024-01-11T12:31:12;24.60;32.90
36652;DHT22;53334;51.976;20.144;2024-01-11T12:33:46;24.60;33.00
36652;DHT22;53334;51.976;20.144;2024-01-11T12:36:20;24.60;32.90
36652;DHT22;53334;51.976;20.144;2024-01-11T12:38:53;24.60;33.10
36652;DHT22;53334;51.976;20.144;2024-01-11T12:41:27;24.60;33.10
36652;DHT22;53334;51.976;20.144;2024-01-11T12:44:00;24.60;33.10
36652;DHT22;53334;51.976;20.144;2024-01-11T12:46:35;24.60;33.20
36652;DHT22;53334;51.976;20.144;2024-01-11T12:49:10;24.60;33.20
36652;DHT22;53334;51.976;20.144;2024-01-11T12:51:43;24.60;33.10
36652;DHT22;53334;51.976;20.144;2024-01-11T12:54:16;24.60;33.20
36652;DHT22;53334;51.976;20.144;2024-01-11T12:56:51;24.60;33.40
36652;DHT22;53334;51.976;20.144;2024-01-11T12:59:25;24.60;33.10
36652;DHT22;53334;51.976;20.144;2024-01-11T13:02:00;24.50;33.10
36652;DHT22;53334;51.976;20.144;2024-01-11T13:04:34;24.50;33.20
36652;DHT22;53334;51.976;20.144;2024-01-11T13:07:09;24.60;33.40
36652;DHT22;53334;51.976;20.144;2024-01-11T13:09:42;24.50;33.60
36652;DHT22;53334;51.976;20.144;2024-01-11T13:12:15;24.50;34.40
36652;DHT22;53334;51.976;20.144;2024-01-11T13:14:49;24.60;34.90
36652;DHT22;53334;51.976;20.144;2024-01-11T13:17:24;24.60;35.30
36652;DHT22;53334;51.976;20.144;2024-01-11T13:19:59;24.60;35.70
36652;DHT22;53334;51.976;20.144;2024-01-11T13:22:33;24.60;37.30
36652;DHT22;53334;51.976;20.144;2024-01-11T13:25:07;24.60;38.90
36652;DHT22;53334;51.976;20.144;2024-01-11T13:27:41;24.60;38.90
36652;DHT22;53334;51.976;20.144;2024-01-11T13:30:14;24.60;39.00
36652;DHT22;53334;51.976;20.144;2024-01-11T13:32:49;24.70;39.60
36652;DHT22;53334;51.976;20.144;2024-01-11T13:35:23;24.70;39.60
36652;DHT22;53334;51.976;20.144;2024-01-11T13:37:56;24.70;39.70
36652;DHT22;53334;51.976;20.144;2024-01-11T13:40:30;24.70;39.80
36652;DHT22;53334;51.976;20.144;2024-01-11T13:43:03;24.70;39.70
36652;DHT22;53334;51.976;20.144;2024-01-11T13:45:36;24.70;39.70
36652;DHT22;53334;51.976;20.144;2024-01-11T13:48:11;24.70;39.60
36652;DHT22;53334;51.976;20.144;2024-01-11T13:50:45;24.70;39.20
36652;DHT22;53334;51.976;20.144;2024-01-11T13:53:18;24.70;39.00
36652;DHT22;53334;51.976;20.144;2024-01-11T13:55:52;24.70;38.80
36652;DHT22;53334;51.976;20.144;2024-01-11T13:58:25;24.70;38.50
36652;DHT22;53334;51.976;20.144;2024-01-11T14:00:58;24.70;38.20
36652;DHT22;53334;51.976;20.144;2024-01-11T14:03:33;24.70;37.90
36652;DHT22;53334;51.976;20.144;2024-01-11T14:06:06;24.70;37.80
36652;DHT22;53334;51.976;20.144;2024-01-11T14:08:40;24.70;37.70
36652;DHT22;53334;51.976;20.144;2024-01-11T14:11:13;24.70;37.60
36652;DHT22;53334;51.976;20.144;2024-01-11T14:13:46;24.70;37.40
36652;DHT22;53334;51.976;20.144;2024-01-11T14:16:20;24.60;37.20
36652;DHT22;53334;51.976;20.144;2024-01-11T14:18:57;24.70;37.10
36652;DHT22;53334;51.976;20.144;2024-01-11T14:21:32;24.60;36.80
36652;DHT22;53334;51.976;20.144;2024-01-11T14:24:05;24.60;36.70
36652;DHT22;53334;51.976;20.144;2024-01-11T14:26:39;24.60;36.60
36652;DHT22;53334;51.976;20.144;2024-01-11T14:29:12;24.60;36.60
36652;DHT22;53334;51.976;20.144;2024-01-11T14:31:45;24.60;36.30
36652;DHT22;53334;51.976;20.144;2024-01-11T14:34:21;24.60;36.20
36652;DHT22;53334;51.976;20.144;2024-01-11T14:36:57;24.60;36.10
36652;DHT22;53334;51.976;20.144;2024-01-11T14:39:30;24.60;35.90
36652;DHT22;53334;51.976;20.144;2024-01-11T14:42:04;24.60;35.90
36652;DHT22;53334;51.976;20.144;2024-01-11T14:44:38;24.60;36.40
36652;DHT22;53334;51.976;20.144;2024-01-11T14:47:11;24.60;36.40
36652;DHT22;53334;51.976;20.144;2024-01-11T14:49:46;24.60;35.80
36652;DHT22;53334;51.976;20.144;2024-01-11T14:52:19;24.60;35.70
36652;DHT22;53334;51.976;20.144;2024-01-11T14:54:53;24.60;35.90
36652;DHT22;53334;51.976;20.144;2024-01-11T14:57:26;24.70;36.20
36652;DHT22;53334;51.976;20.144;2024-01-11T14:59:59;24.60;36.20
36652;DHT22;53334;51.976;20.144;2024-01-11T15:02:32;24.70;36.20
36652;DHT22;53334;51.976;20.144;2024-01-11T15:05:08;24.70;36.30
36652;DHT22;53334;51.976;20.144;2024-01-11T15:07:41;24.70;36.40
36652;DHT22;53334;51.976;20.144;2024-01-11T15:10:14;24.70;36.40
36652;DHT22;53334;51.976;20.144;2024-01-11T15:12:48;24.70;36.40
36652;DHT22;53334;51.976;20.144;2024-01-11T15:15:21;24.70;36.40
36652;DHT22;53334;51.976;20.144;2024-01-11T15:17:54;24.70;36.40
36652;DHT22;53334;51.976;20.144;2024-01-11T15:20:29;24.70;36.30
36652;DHT22;53334;51.976;20.144;2024-01-11T15:23:03;24.70;36.30
36652;DHT22;53334;51.976;20.144;2024-01-11T15:25:37;24.70;36.30
36652;DHT22;53334;51.976;20.144;2024-01-11T15:28:10;24.80;36.30
36652;DHT22;53334;51.976;20.144;2024-01-11T15:30:44;24.70;36.30
36652;DHT22;53334;51.976;20.144;2024-01-11T15:33:17;24.80;36.30
36652;DHT22;53334;51.976;20.144;2024-01-11T15:35:52;24.80;36.50
36652;DHT22;53334;51.976;20.144;2024-01-11T15:38:26;24.80;36.60
36652;DHT22;53334;51.976;20.144;2024-01-11T15:40:59;24.80;36.70
36652;DHT22;53334;51.976;20.144;2024-01-11T15:43:32;24.80;36.70
36652;DHT22;53334;51.976;20.144;2024-01-11T15:46:05;24.80;36.80
36652;DHT22;53334;51.976;20.144;2024-01-11T15:48:39;24.80;36.90
36652;DHT22;53334;51.976;20.144;2024-01-11T15:51:13;24.80;37.00
36652;DHT22;53334;51.976;20.144;2024-01-11T15:53:47;24.80;37.10
36652;DHT22;53334;51.976;20.144;2024-01-11T15:56:26;24.80;37.10
36652;DHT22;53334;51.976;20.144;2024-01-11T15:58:59;24.80;37.30
36652;DHT22;53334;51.976;20.144;2024-01-11T16:01:32;24.80;37.30